sensor_id;sensor_type;location;lat;lon;timestamp;P1;durP1;ratioP1;P2;durP2;ratioP2
69126;SDS011;56688;50.234;19.292;2022-08-21T00:01:40;27.10;;;19.10;;
69126;SDS011;56688;50.234;19.292;2022-08-21T00:04:08;29.40;;;18.90;;
69126;SDS011;56688;50.234;19.292;2022-08-21T00:06:40;29.60;;;18.70;;
69126;SDS011;56688;50.234;19.292;2022-08-21T00:09:07;24.90;;;17.60;;
69126;SDS011;56688;50.234;19.292;2022-08-21T00:11:35;28.10;;;19.20;;
69126;SDS011;56688;50.234;19.292;2022-08-21T00:14:04;28.80;;;18.50;;
69126;SDS011;56688;50.234;19.292;2022-08-21T00:16:33;26.80;;;18.40;;
69126;SDS011;56688;50.234;19.292;2022-08-21T00:19:00;27.10;;;17.50;;
69126;SDS011;56688;50.234;19.292;2022-08-21T00:21:28;21.40;;;16.60;;
69126;SDS011;56688;50.234;19.292;2022-08-21T00:23:55;25.90;;;17.20;;
69126;SDS011;56688;50.234;19.292;2022-08-21T00:26:22;26.90;;;18.00;;
69126;SDS011;56688;50.234;19.292;2022-08-21T00:28:49;28.30;;;17.90;;
69126;SDS011;56688;50.234;19.292;2022-08-21T00:31:17;23.10;;;16.10;;
69126;SDS011;56688;50.234;19.292;2022-08-21T00:33:44;26.30;;;17.30;;
69126;SDS011;56688;50.234;19.292;2022-08-21T00:36:12;29.00;;;17.60;;
69126;SDS011;56688;50.234;19.292;2022-08-21T00:38:39;26.80;;;17.30;;
69126;SDS011;56688;50.234;19.292;2022-08-21T00:41:07;23.90;;;17.50;;
69126;SDS011;56688;50.234;19.292;2022-08-21T00:43:55;30.10;;;17.50;;
69126;SDS011;56688;50.234;19.292;2022-08-21T00:46:22;26.50;;;17.00;;
69126;SDS011;56688;50.234;19.292;2022-08-21T00:48:53;29.40;;;17.60;;
69126;SDS011;56688;50.234;19.292;2022-08-21T00:51:26;29.40;;;17.80;;
69126;SDS011;56688;50.234;19.292;2022-08-21T00:54:04;25.90;;;16.90;;
69126;SDS011;56688;50.234;19.292;2022-08-21T00:56:46;28.80;;;17.50;;
69126;SDS011;56688;50.234;19.292;2022-08-21T00:59:19;22.20;;;16.30;;
69126;SDS011;56688;50.234;19.292;2022-08-21T01:01:48;34.10;;;18.10;;
69126;SDS011;56688;50.234;19.292;2022-08-21T01:04:16;23.90;;;16.90;;
69126;SDS011;56688;50.234;19.292;2022-08-21T01:06:44;28.70;;;17.80;;
69126;SDS011;56688;50.234;19.292;2022-08-21T01:09:12;28.90;;;17.60;;
69126;SDS011;56688;50.234;19.292;2022-08-21T01:11:40;25.10;;;16.50;;
69126;SDS011;56688;50.234;19.292;2022-08-21T01:14:10;25.10;;;17.00;;
69126;SDS011;56688;50.234;19.292;2022-08-21T01:16:40;25.80;;;17.20;;
69126;SDS011;56688;50.234;19.292;2022-08-21T01:19:12;23.30;;;16.80;;
69126;SDS011;56688;50.234;19.292;2022-08-21T01:21:40;23.00;;;16.10;;
69126;SDS011;56688;50.234;19.292;2022-08-21T01:24:09;27.50;;;16.50;;
69126;SDS011;56688;50.234;19.292;2022-08-21T01:26:37;21.80;;;16.20;;
69126;SDS011;56688;50.234;19.292;2022-08-21T01:31:47;21.80;;;16.70;;
69126;SDS011;56688;50.234;19.292;2022-08-21T01:34:15;22.30;;;15.30;;
69126;SDS011;56688;50.234;19.292;2022-08-21T01:36:43;24.60;;;16.50;;
69126;SDS011;56688;50.234;19.292;2022-08-21T01:39:11;23.90;;;16.00;;
69126;SDS011;56688;50.234;19.292;2022-08-21T01:41:38;25.70;;;16.00;;
69126;SDS011;56688;50.234;19.292;2022-08-21T01:44:05;22.80;;;15.60;;
69126;SDS011;56688;50.234;19.292;2022-08-21T01:46:32;25.10;;;15.80;;
69126;SDS011;56688;50.234;19.292;2022-08-21T01:48:59;21.10;;;15.40;;
69126;SDS011;56688;50.234;19.292;2022-08-21T01:51:26;25.70;;;16.00;;
69126;SDS011;56688;50.234;19.292;2022-08-21T01:53:53;24.60;;;15.20;;
69126;SDS011;56688;50.234;19.292;2022-08-21T01:56:20;29.30;;;15.30;;
69126;SDS011;56688;50.234;19.292;2022-08-21T01:58:47;22.00;;;14.90;;
69126;SDS011;56688;50.234;19.292;2022-08-21T02:01:15;24.20;;;15.50;;
69126;SDS011;56688;50.234;19.292;2022-08-21T02:03:42;23.10;;;14.90;;
69126;SDS011;56688;50.234;19.292;2022-08-21T02:06:12;23.20;;;16.50;;
69126;SDS011;56688;50.234;19.292;2022-08-21T02:08:45;26.20;;;15.70;;
69126;SDS011;56688;50.234;19.292;2022-08-21T02:11:13;24.50;;;15.60;;
69126;SDS011;56688;50.234;19.292;2022-08-21T02:13:40;21.80;;;15.20;;
69126;SDS011;56688;50.234;19.292;2022-08-21T02:16:08;23.30;;;14.90;;
69126;SDS011;56688;50.234;19.292;2022-08-21T02:18:35;22.00;;;15.10;;
69126;SDS011;56688;50.234;19.292;2022-08-21T02:21:02;21.20;;;14.20;;
69126;SDS011;56688;50.234;19.292;2022-08-21T02:23:30;24.80;;;14.40;;
69126;SDS011;56688;50.234;19.292;2022-08-21T02:25:58;20.70;;;14.20;;
69126;SDS011;56688;50.234;19.292;2022-08-21T02:28:26;23.10;;;14.90;;
69126;SDS011;56688;50.234;19.292;2022-08-21T02:30:53;21.80;;;13.70;;
69126;SDS011;56688;50.234;19.292;2022-08-21T02:33:22;23.20;;;14.60;;
69126;SDS011;56688;50.234;19.292;2022-08-21T02:35:50;25.70;;;15.20;;
69126;SDS011;56688;50.234;19.292;2022-08-21T02:38:21;20.50;;;14.70;;
69126;SDS011;56688;50.234;19.292;2022-08-21T02:40:50;25.00;;;14.80;;
69126;SDS011;56688;50.234;19.292;2022-08-21T02:43:19;22.50;;;14.50;;
69126;SDS011;56688;50.234;19.292;2022-08-21T02:45:48;23.80;;;14.20;;
69126;SDS011;56688;50.234;19.292;2022-08-21T02:48:18;25.40;;;14.50;;
69126;SDS011;56688;50.234;19.292;2022-08-21T02:50:50;27.80;;;15.20;;
69126;SDS011;56688;50.234;19.292;2022-08-21T02:53:19;24.50;;;14.50;;
69126;SDS011;56688;50.234;19.292;2022-08-21T02:55:48;24.70;;;14.60;;
69126;SDS011;56688;50.234;19.292;2022-08-21T02:58:17;25.30;;;15.00;;
69126;SDS011;56688;50.234;19.292;2022-08-21T03:00:46;22.50;;;14.70;;
69126;SDS011;56688;50.234;19.292;2022-08-21T03:03:13;23.20;;;14.10;;
69126;SDS011;56688;50.234;19.292;2022-08-21T03:05:41;19.40;;;13.80;;
69126;SDS011;56688;50.234;19.292;2022-08-21T03:08:10;21.40;;;14.90;;
69126;SDS011;56688;50.234;19.292;2022-08-21T03:10:50;25.90;;;15.40;;
69126;SDS011;56688;50.234;19.292;2022-08-21T03:13:19;25.10;;;16.20;;
69126;SDS011;56688;50.234;19.292;2022-08-21T03:15:48;24.80;;;15.10;;
69126;SDS011;56688;50.234;19.292;2022-08-21T03:18:15;24.90;;;15.50;;
69126;SDS011;56688;50.234;19.292;2022-08-21T03:20:43;22.60;;;15.80;;
69126;SDS011;56688;50.234;19.292;2022-08-21T03:23:11;24.00;;;14.70;;
69126;SDS011;56688;50.234;19.292;2022-08-21T03:25:44;22.60;;;15.00;;
69126;SDS011;56688;50.234;19.292;2022-08-21T03:28:15;23.80;;;15.10;;
69126;SDS011;56688;50.234;19.292;2022-08-21T03:30:44;21.90;;;14.10;;
69126;SDS011;56688;50.234;19.292;2022-08-21T03:33:13;21.40;;;14.90;;
69126;SDS011;56688;50.234;19.292;2022-08-21T03:35:42;24.10;;;15.50;;
69126;SDS011;56688;50.234;19.292;2022-08-21T03:38:11;24.70;;;15.20;;
69126;SDS011;56688;50.234;19.292;2022-08-21T03:40:40;28.60;;;16.10;;
69126;SDS011;56688;50.234;19.292;2022-08-21T03:43:08;29.10;;;15.50;;
69126;SDS011;56688;50.234;19.292;2022-08-21T03:45:36;22.10;;;14.50;;
69126;SDS011;56688;50.234;19.292;2022-08-21T03:48:04;23.50;;;15.40;;
69126;SDS011;56688;50.234;19.292;2022-08-21T03:50:35;24.70;;;15.20;;
69126;SDS011;56688;50.234;19.292;2022-08-21T03:53:07;25.60;;;16.00;;
69126;SDS011;56688;50.234;19.292;2022-08-21T03:55:43;25.40;;;15.40;;
69126;SDS011;56688;50.234;19.292;2022-08-21T03:58:14;24.60;;;15.00;;
69126;SDS011;56688;50.234;19.292;2022-08-21T04:00:44;22.20;;;15.10;;
69126;SDS011;56688;50.234;19.292;2022-08-21T04:03:11;24.30;;;14.80;;
69126;SDS011;56688;50.234;19.292;2022-08-21T04:05:39;24.10;;;16.00;;
69126;SDS011;56688;50.234;19.292;2022-08-21T04:08:06;23.80;;;15.50;;
69126;SDS011;56688;50.234;19.292;2022-08-21T04:10:34;24.70;;;15.90;;
69126;SDS011;56688;50.234;19.292;2022-08-21T04:13:03;22.70;;;16.40;;
69126;SDS011;56688;50.234;19.292;2022-08-21T04:15:31;26.40;;;16.70;;
69126;SDS011;56688;50.234;19.292;2022-08-21T04:17:58;26.00;;;16.10;;
69126;SDS011;56688;50.234;19.292;2022-08-21T04:20:25;21.10;;;15.70;;
69126;SDS011;56688;50.234;19.292;2022-08-21T04:22:53;24.60;;;16.00;;
69126;SDS011;56688;50.234;19.292;2022-08-21T04:25:21;22.10;;;16.10;;
69126;SDS011;56688;50.234;19.292;2022-08-21T04:27:49;21.90;;;14.40;;
69126;SDS011;56688;50.234;19.292;2022-08-21T04:30:16;28.50;;;16.30;;
69126;SDS011;56688;50.234;19.292;2022-08-21T04:32:46;28.00;;;15.90;;
69126;SDS011;56688;50.234;19.292;2022-08-21T04:35:16;30.70;;;16.30;;
69126;SDS011;56688;50.234;19.292;2022-08-21T04:37:46;25.30;;;16.30;;
69126;SDS011;56688;50.234;19.292;2022-08-21T04:40:15;24.90;;;17.10;;
69126;SDS011;56688;50.234;19.292;2022-08-21T04:42:46;24.90;;;16.50;;
69126;SDS011;56688;50.234;19.292;2022-08-21T04:45:18;25.60;;;17.40;;
69126;SDS011;56688;50.234;19.292;2022-08-21T04:47:49;31.70;;;18.70;;
69126;SDS011;56688;50.234;19.292;2022-08-21T04:50:19;32.10;;;17.80;;
69126;SDS011;56688;50.234;19.292;2022-08-21T04:53:02;26.10;;;17.70;;
69126;SDS011;56688;50.234;19.292;2022-08-21T04:55:31;28.90;;;17.90;;
69126;SDS011;56688;50.234;19.292;2022-08-21T04:57:59;29.70;;;17.70;;
69126;SDS011;56688;50.234;19.292;2022-08-21T05:00:26;22.70;;;15.50;;
69126;SDS011;56688;50.234;19.292;2022-08-21T05:02:53;28.10;;;17.40;;
69126;SDS011;56688;50.234;19.292;2022-08-21T05:05:23;31.80;;;19.10;;
69126;SDS011;56688;50.234;19.292;2022-08-21T05:07:51;26.70;;;18.30;;
69126;SDS011;56688;50.234;19.292;2022-08-21T05:10:19;32.70;;;19.50;;
69126;SDS011;56688;50.234;19.292;2022-08-21T05:12:47;28.30;;;18.00;;
69126;SDS011;56688;50.234;19.292;2022-08-21T05:15:14;31.70;;;18.80;;
69126;SDS011;56688;50.234;19.292;2022-08-21T05:17:41;33.00;;;18.90;;
69126;SDS011;56688;50.234;19.292;2022-08-21T05:20:09;30.70;;;19.10;;
69126;SDS011;56688;50.234;19.292;2022-08-21T05:22:37;29.50;;;18.00;;
69126;SDS011;56688;50.234;19.292;2022-08-21T05:25:05;32.00;;;18.80;;
69126;SDS011;56688;50.234;19.292;2022-08-21T05:27:36;29.40;;;18.80;;
69126;SDS011;56688;50.234;19.292;2022-08-21T05:30:08;30.30;;;18.50;;
69126;SDS011;56688;50.234;19.292;2022-08-21T05:32:36;29.00;;;18.90;;
69126;SDS011;56688;50.234;19.292;2022-08-21T05:35:04;30.40;;;18.20;;
69126;SDS011;56688;50.234;19.292;2022-08-21T05:37:33;25.70;;;17.20;;
69126;SDS011;56688;50.234;19.292;2022-08-21T05:40:01;26.40;;;17.20;;
69126;SDS011;56688;50.234;19.292;2022-08-21T05:42:51;24.80;;;16.80;;
69126;SDS011;56688;50.234;19.292;2022-08-21T05:45:22;25.10;;;17.60;;
69126;SDS011;56688;50.234;19.292;2022-08-21T05:48:08;32.80;;;18.30;;
69126;SDS011;56688;50.234;19.292;2022-08-21T05:50:42;25.50;;;18.60;;
69126;SDS011;56688;50.234;19.292;2022-08-21T05:53:10;28.30;;;18.00;;
69126;SDS011;56688;50.234;19.292;2022-08-21T05:55:39;30.70;;;18.30;;
69126;SDS011;56688;50.234;19.292;2022-08-21T05:58:12;27.20;;;18.00;;
69126;SDS011;56688;50.234;19.292;2022-08-21T06:00:41;30.20;;;17.60;;
69126;SDS011;56688;50.234;19.292;2022-08-21T06:03:11;28.90;;;18.40;;
69126;SDS011;56688;50.234;19.292;2022-08-21T06:05:39;22.90;;;15.40;;
69126;SDS011;56688;50.234;19.292;2022-08-21T06:08:06;30.90;;;19.00;;
69126;SDS011;56688;50.234;19.292;2022-08-21T06:10:33;31.40;;;17.50;;
69126;SDS011;56688;50.234;19.292;2022-08-21T06:13:00;26.80;;;17.50;;
69126;SDS011;56688;50.234;19.292;2022-08-21T06:15:27;25.80;;;16.60;;
69126;SDS011;56688;50.234;19.292;2022-08-21T06:17:54;27.10;;;17.80;;
69126;SDS011;56688;50.234;19.292;2022-08-21T06:20:21;28.50;;;17.90;;
69126;SDS011;56688;50.234;19.292;2022-08-21T06:22:49;28.50;;;17.70;;
69126;SDS011;56688;50.234;19.292;2022-08-21T06:25:15;23.90;;;17.10;;
69126;SDS011;56688;50.234;19.292;2022-08-21T06:27:42;25.80;;;17.60;;
69126;SDS011;56688;50.234;19.292;2022-08-21T06:30:10;26.30;;;16.50;;
69126;SDS011;56688;50.234;19.292;2022-08-21T06:32:38;24.30;;;16.60;;
69126;SDS011;56688;50.234;19.292;2022-08-21T06:35:05;26.30;;;16.60;;
69126;SDS011;56688;50.234;19.292;2022-08-21T06:37:33;27.00;;;16.40;;
69126;SDS011;56688;50.234;19.292;2022-08-21T06:40:00;25.60;;;17.30;;
69126;SDS011;56688;50.234;19.292;2022-08-21T06:42:28;24.20;;;16.10;;
69126;SDS011;56688;50.234;19.292;2022-08-21T06:44:56;21.80;;;15.30;;
69126;SDS011;56688;50.234;19.292;2022-08-21T06:47:23;28.70;;;18.60;;
69126;SDS011;56688;50.234;19.292;2022-08-21T06:49:50;30.80;;;17.90;;
69126;SDS011;56688;50.234;19.292;2022-08-21T06:52:17;26.20;;;18.00;;
69126;SDS011;56688;50.234;19.292;2022-08-21T06:54:44;22.90;;;15.70;;
69126;SDS011;56688;50.234;19.292;2022-08-21T06:57:11;33.70;;;22.20;;
69126;SDS011;56688;50.234;19.292;2022-08-21T06:59:38;39.10;;;25.00;;
69126;SDS011;56688;50.234;19.292;2022-08-21T07:02:06;38.70;;;23.70;;
69126;SDS011;56688;50.234;19.292;2022-08-21T07:04:34;33.80;;;21.70;;
69126;SDS011;56688;50.234;19.292;2022-08-21T07:07:01;37.70;;;23.50;;
69126;SDS011;56688;50.234;19.292;2022-08-21T07:09:27;39.40;;;25.70;;
69126;SDS011;56688;50.234;19.292;2022-08-21T07:11:54;42.40;;;25.70;;
69126;SDS011;56688;50.234;19.292;2022-08-21T07:14:22;41.00;;;26.20;;
69126;SDS011;56688;50.234;19.292;2022-08-21T07:16:49;39.10;;;26.20;;
69126;SDS011;56688;50.234;19.292;2022-08-21T07:19:17;32.90;;;20.70;;
69126;SDS011;56688;50.234;19.292;2022-08-21T07:21:44;41.90;;;24.30;;
69126;SDS011;56688;50.234;19.292;2022-08-21T07:24:11;33.00;;;22.90;;
69126;SDS011;56688;50.234;19.292;2022-08-21T07:26:39;36.20;;;22.40;;
69126;SDS011;56688;50.234;19.292;2022-08-21T07:29:06;38.00;;;22.60;;
69126;SDS011;56688;50.234;19.292;2022-08-21T07:31:33;31.40;;;21.90;;
69126;SDS011;56688;50.234;19.292;2022-08-21T07:34:00;35.90;;;22.10;;
69126;SDS011;56688;50.234;19.292;2022-08-21T07:36:27;29.70;;;20.30;;
69126;SDS011;56688;50.234;19.292;2022-08-21T07:38:54;29.00;;;19.80;;
69126;SDS011;56688;50.234;19.292;2022-08-21T07:41:22;16.70;;;12.10;;
69126;SDS011;56688;50.234;19.292;2022-08-21T07:43:52;10.70;;;7.70;;
69126;SDS011;56688;50.234;19.292;2022-08-21T07:46:19;10.90;;;6.00;;
69126;SDS011;56688;50.234;19.292;2022-08-21T07:48:47;9.90;;;5.90;;
69126;SDS011;56688;50.234;19.292;2022-08-21T07:51:14;7.50;;;4.90;;
69126;SDS011;56688;50.234;19.292;2022-08-21T07:53:47;9.20;;;4.20;;
69126;SDS011;56688;50.234;19.292;2022-08-21T07:56:16;7.50;;;2.80;;
69126;SDS011;56688;50.234;19.292;2022-08-21T07:58:44;4.10;;;3.20;;
69126;SDS011;56688;50.234;19.292;2022-08-21T08:01:10;5.30;;;2.90;;
69126;SDS011;56688;50.234;19.292;2022-08-21T08:03:38;3.30;;;2.60;;
69126;SDS011;56688;50.234;19.292;2022-08-21T08:06:06;2.50;;;2.10;;
69126;SDS011;56688;50.234;19.292;2022-08-21T08:08:39;6.90;;;2.50;;
69126;SDS011;56688;50.234;19.292;2022-08-21T08:11:07;3.10;;;1.90;;
69126;SDS011;56688;50.234;19.292;2022-08-21T08:13:39;3.30;;;2.10;;
69126;SDS011;56688;50.234;19.292;2022-08-21T08:16:07;3.30;;;2.10;;
69126;SDS011;56688;50.234;19.292;2022-08-21T08:18:34;3.70;;;2.20;;
69126;SDS011;56688;50.234;19.292;2022-08-21T08:21:01;3.10;;;2.10;;
69126;SDS011;56688;50.234;19.292;2022-08-21T08:23:29;4.30;;;2.20;;
69126;SDS011;56688;50.234;19.292;2022-08-21T08:25:57;3.70;;;1.90;;
69126;SDS011;56688;50.234;19.292;2022-08-21T08:28:24;4.20;;;2.00;;
69126;SDS011;56688;50.234;19.292;2022-08-21T08:30:51;4.20;;;2.10;;
69126;SDS011;56688;50.234;19.292;2022-08-21T08:33:18;3.90;;;2.20;;
69126;SDS011;56688;50.234;19.292;2022-08-21T08:35:46;5.50;;;1.90;;
69126;SDS011;56688;50.234;19.292;2022-08-21T08:38:16;5.30;;;2.20;;
69126;SDS011;56688;50.234;19.292;2022-08-21T08:40:51;3.30;;;2.30;;
69126;SDS011;56688;50.234;19.292;2022-08-21T08:43:19;4.70;;;2.10;;
69126;SDS011;56688;50.234;19.292;2022-08-21T08:45:48;4.80;;;1.90;;
69126;SDS011;56688;50.234;19.292;2022-08-21T08:51:10;6.40;;;1.90;;
69126;SDS011;56688;50.234;19.292;2022-08-21T08:53:47;3.80;;;1.80;;
69126;SDS011;56688;50.234;19.292;2022-08-21T08:56:18;2.70;;;1.70;;
69126;SDS011;56688;50.234;19.292;2022-08-21T08:58:49;3.10;;;2.00;;
69126;SDS011;56688;50.234;19.292;2022-08-21T09:01:19;3.50;;;2.10;;
69126;SDS011;56688;50.234;19.292;2022-08-21T09:03:46;4.20;;;2.10;;
69126;SDS011;56688;50.234;19.292;2022-08-21T09:06:19;2.70;;;2.10;;
69126;SDS011;56688;50.234;19.292;2022-08-21T09:14:36;3.10;;;2.30;;
69126;SDS011;56688;50.234;19.292;2022-08-21T09:25:12;3.10;;;1.90;;
69126;SDS011;56688;50.234;19.292;2022-08-21T09:27:49;3.00;;;2.00;;
69126;SDS011;56688;50.234;19.292;2022-08-21T09:30:17;3.70;;;1.60;;
69126;SDS011;56688;50.234;19.292;2022-08-21T09:32:50;2.70;;;1.50;;
69126;SDS011;56688;50.234;19.292;2022-08-21T09:35:17;2.70;;;1.30;;
69126;SDS011;56688;50.234;19.292;2022-08-21T09:43:01;2.60;;;0.90;;
69126;SDS011;56688;50.234;19.292;2022-08-21T09:45:31;1.20;;;1.10;;
69126;SDS011;56688;50.234;19.292;2022-08-21T09:48:08;1.50;;;1.00;;
69126;SDS011;56688;50.234;19.292;2022-08-21T09:50:42;4.90;;;1.00;;
69126;SDS011;56688;50.234;19.292;2022-08-21T09:53:18;0.70;;;0.70;;
69126;SDS011;56688;50.234;19.292;2022-08-21T09:55:49;2.70;;;1.00;;
69126;SDS011;56688;50.234;19.292;2022-08-21T09:58:34;2.30;;;0.80;;
69126;SDS011;56688;50.234;19.292;2022-08-21T10:01:05;2.50;;;0.80;;
69126;SDS011;56688;50.234;19.292;2022-08-21T10:03:33;2.40;;;0.80;;
69126;SDS011;56688;50.234;19.292;2022-08-21T10:06:01;2.00;;;0.90;;
69126;SDS011;56688;50.234;19.292;2022-08-21T10:08:35;0.70;;;0.70;;
69126;SDS011;56688;50.234;19.292;2022-08-21T10:11:06;2.60;;;0.70;;
69126;SDS011;56688;50.234;19.292;2022-08-21T10:13:40;2.20;;;0.90;;
69126;SDS011;56688;50.234;19.292;2022-08-21T10:16:24;2.30;;;0.70;;
69126;SDS011;56688;50.234;19.292;2022-08-21T10:35:10;1.50;;;1.00;;
69126;SDS011;56688;50.234;19.292;2022-08-21T10:49:21;1.50;;;1.10;;
69126;SDS011;56688;50.234;19.292;2022-08-21T10:51:54;2.10;;;1.00;;
69126;SDS011;56688;50.234;19.292;2022-08-21T10:54:35;2.00;;;0.80;;
69126;SDS011;56688;50.234;19.292;2022-08-21T10:57:22;3.60;;;1.00;;
69126;SDS011;56688;50.234;19.292;2022-08-21T11:00:00;1.50;;;1.10;;
69126;SDS011;56688;50.234;19.292;2022-08-21T11:02:35;1.20;;;1.00;;
69126;SDS011;56688;50.234;19.292;2022-08-21T11:07:53;3.30;;;1.00;;
69126;SDS011;56688;50.234;19.292;2022-08-21T11:10:28;3.20;;;1.10;;
69126;SDS011;56688;50.234;19.292;2022-08-21T11:13:11;3.00;;;1.00;;
69126;SDS011;56688;50.234;19.292;2022-08-21T11:18:22;1.80;;;1.00;;
69126;SDS011;56688;50.234;19.292;2022-08-21T11:26:07;2.00;;;0.90;;
69126;SDS011;56688;50.234;19.292;2022-08-21T11:28:42;2.10;;;0.90;;
69126;SDS011;56688;50.234;19.292;2022-08-21T11:31:33;2.00;;;0.90;;
69126;SDS011;56688;50.234;19.292;2022-08-21T11:34:19;1.40;;;1.10;;
69126;SDS011;56688;50.234;19.292;2022-08-21T11:36:55;1.70;;;1.00;;
69126;SDS011;56688;50.234;19.292;2022-08-21T11:39:33;1.10;;;0.80;;
69126;SDS011;56688;50.234;19.292;2022-08-21T11:42:30;1.30;;;0.80;;
69126;SDS011;56688;50.234;19.292;2022-08-21T11:50:44;0.70;;;0.70;;
69126;SDS011;56688;50.234;19.292;2022-08-21T11:53:14;1.50;;;0.80;;
69126;SDS011;56688;50.234;19.292;2022-08-21T11:58:25;1.70;;;0.80;;
69126;SDS011;56688;50.234;19.292;2022-08-21T12:01:00;1.70;;;0.90;;
69126;SDS011;56688;50.234;19.292;2022-08-21T12:03:34;2.30;;;1.10;;
69126;SDS011;56688;50.234;19.292;2022-08-21T12:06:08;1.30;;;0.80;;
69126;SDS011;56688;50.234;19.292;2022-08-21T12:08:39;1.20;;;1.10;;
69126;SDS011;56688;50.234;19.292;2022-08-21T12:11:09;1.60;;;1.00;;
69126;SDS011;56688;50.234;19.292;2022-08-21T12:16:44;1.10;;;1.00;;
69126;SDS011;56688;50.234;19.292;2022-08-21T12:29:54;1.50;;;1.00;;
69126;SDS011;56688;50.234;19.292;2022-08-21T12:37:56;1.10;;;0.90;;
69126;SDS011;56688;50.234;19.292;2022-08-21T12:40:30;2.60;;;1.00;;
69126;SDS011;56688;50.234;19.292;2022-08-21T12:43:03;1.60;;;1.10;;
69126;SDS011;56688;50.234;19.292;2022-08-21T12:45:33;1.00;;;0.90;;
69126;SDS011;56688;50.234;19.292;2022-08-21T12:50:58;1.20;;;0.90;;
69126;SDS011;56688;50.234;19.292;2022-08-21T12:56:18;0.90;;;0.90;;
69126;SDS011;56688;50.234;19.292;2022-08-21T12:58:50;1.60;;;0.90;;
69126;SDS011;56688;50.234;19.292;2022-08-21T13:01:21;1.40;;;0.80;;
69126;SDS011;56688;50.234;19.292;2022-08-21T13:03:54;1.90;;;0.90;;
69126;SDS011;56688;50.234;19.292;2022-08-21T13:06:32;1.80;;;0.90;;
69126;SDS011;56688;50.234;19.292;2022-08-21T13:09:05;0.80;;;0.80;;
69126;SDS011;56688;50.234;19.292;2022-08-21T13:11:36;0.80;;;0.80;;
69126;SDS011;56688;50.234;19.292;2022-08-21T13:14:09;2.10;;;0.90;;
69126;SDS011;56688;50.234;19.292;2022-08-21T13:16:45;1.80;;;0.90;;
69126;SDS011;56688;50.234;19.292;2022-08-21T13:19:15;0.90;;;0.90;;
69126;SDS011;56688;50.234;19.292;2022-08-21T13:21:49;1.20;;;0.90;;
69126;SDS011;56688;50.234;19.292;2022-08-21T13:27:16;1.10;;;1.00;;
69126;SDS011;56688;50.234;19.292;2022-08-21T13:29:47;1.60;;;1.20;;
69126;SDS011;56688;50.234;19.292;2022-08-21T13:32:21;1.70;;;1.20;;
69126;SDS011;56688;50.234;19.292;2022-08-21T13:34:58;1.80;;;1.40;;
69126;SDS011;56688;50.234;19.292;2022-08-21T13:37:33;1.40;;;1.30;;
69126;SDS011;56688;50.234;19.292;2022-08-21T13:40:02;4.90;;;1.50;;
69126;SDS011;56688;50.234;19.292;2022-08-21T13:42:33;1.90;;;1.70;;
69126;SDS011;56688;50.234;19.292;2022-08-21T13:45:00;2.30;;;1.80;;
69126;SDS011;56688;50.234;19.292;2022-08-21T13:47:27;2.90;;;2.20;;
69126;SDS011;56688;50.234;19.292;2022-08-21T13:49:53;2.10;;;1.80;;
69126;SDS011;56688;50.234;19.292;2022-08-21T13:52:25;2.70;;;2.00;;
69126;SDS011;56688;50.234;19.292;2022-08-21T13:57:25;2.30;;;1.50;;
69126;SDS011;56688;50.234;19.292;2022-08-21T14:02:40;2.40;;;1.50;;
69126;SDS011;56688;50.234;19.292;2022-08-21T14:07:58;1.70;;;1.50;;
69126;SDS011;56688;50.234;19.292;2022-08-21T14:10:35;2.30;;;1.60;;
69126;SDS011;56688;50.234;19.292;2022-08-21T14:13:07;2.00;;;1.80;;
69126;SDS011;56688;50.234;19.292;2022-08-21T14:15:54;3.90;;;1.50;;
69126;SDS011;56688;50.234;19.292;2022-08-21T14:18:26;3.70;;;2.40;;
69126;SDS011;56688;50.234;19.292;2022-08-21T14:23:36;9.00;;;6.70;;
69126;SDS011;56688;50.234;19.292;2022-08-21T14:26:05;8.70;;;7.80;;
69126;SDS011;56688;50.234;19.292;2022-08-21T14:28:34;9.10;;;7.40;;
69126;SDS011;56688;50.234;19.292;2022-08-21T14:31:12;7.40;;;6.30;;
69126;SDS011;56688;50.234;19.292;2022-08-21T14:33:42;7.10;;;5.80;;
69126;SDS011;56688;50.234;19.292;2022-08-21T14:36:10;6.50;;;5.80;;
69126;SDS011;56688;50.234;19.292;2022-08-21T14:38:38;6.70;;;5.80;;
69126;SDS011;56688;50.234;19.292;2022-08-21T14:41:09;8.60;;;6.80;;
69126;SDS011;56688;50.234;19.292;2022-08-21T14:43:42;5.90;;;5.30;;
69126;SDS011;56688;50.234;19.292;2022-08-21T14:46:11;9.00;;;5.10;;
69126;SDS011;56688;50.234;19.292;2022-08-21T14:48:42;6.30;;;4.80;;
69126;SDS011;56688;50.234;19.292;2022-08-21T14:51:09;5.80;;;5.20;;
69126;SDS011;56688;50.234;19.292;2022-08-21T14:53:36;5.80;;;5.10;;
69126;SDS011;56688;50.234;19.292;2022-08-21T14:56:03;7.40;;;5.30;;
69126;SDS011;56688;50.234;19.292;2022-08-21T14:58:34;7.70;;;5.80;;
69126;SDS011;56688;50.234;19.292;2022-08-21T15:01:05;5.40;;;4.80;;
69126;SDS011;56688;50.234;19.292;2022-08-21T15:03:35;5.40;;;4.80;;
69126;SDS011;56688;50.234;19.292;2022-08-21T15:06:03;7.20;;;4.50;;
69126;SDS011;56688;50.234;19.292;2022-08-21T15:08:31;7.50;;;4.90;;
69126;SDS011;56688;50.234;19.292;2022-08-21T15:10:59;4.60;;;4.10;;
69126;SDS011;56688;50.234;19.292;2022-08-21T15:13:39;6.00;;;4.20;;
69126;SDS011;56688;50.234;19.292;2022-08-21T15:16:07;5.80;;;4.40;;
69126;SDS011;56688;50.234;19.292;2022-08-21T15:18:36;5.30;;;3.90;;
69126;SDS011;56688;50.234;19.292;2022-08-21T15:21:04;5.00;;;4.20;;
69126;SDS011;56688;50.234;19.292;2022-08-21T15:23:31;5.90;;;3.90;;
69126;SDS011;56688;50.234;19.292;2022-08-21T15:25:58;6.40;;;4.30;;
69126;SDS011;56688;50.234;19.292;2022-08-21T15:28:26;5.50;;;4.30;;
69126;SDS011;56688;50.234;19.292;2022-08-21T15:30:57;6.60;;;4.60;;
69126;SDS011;56688;50.234;19.292;2022-08-21T15:33:26;6.30;;;4.70;;
69126;SDS011;56688;50.234;19.292;2022-08-21T15:35:54;9.00;;;4.80;;
69126;SDS011;56688;50.234;19.292;2022-08-21T15:38:21;6.70;;;4.40;;
69126;SDS011;56688;50.234;19.292;2022-08-21T15:40:48;7.80;;;4.20;;
69126;SDS011;56688;50.234;19.292;2022-08-21T15:43:21;7.90;;;4.40;;
69126;SDS011;56688;50.234;19.292;2022-08-21T15:45:57;7.50;;;4.70;;
69126;SDS011;56688;50.234;19.292;2022-08-21T15:48:25;6.90;;;4.40;;
69126;SDS011;56688;50.234;19.292;2022-08-21T15:50:52;10.20;;;4.80;;
69126;SDS011;56688;50.234;19.292;2022-08-21T15:53:35;7.70;;;4.60;;
69126;SDS011;56688;50.234;19.292;2022-08-21T15:56:06;9.60;;;5.30;;
69126;SDS011;56688;50.234;19.292;2022-08-21T16:01:05;9.40;;;4.90;;
69126;SDS011;56688;50.234;19.292;2022-08-21T16:03:32;8.60;;;4.30;;
69126;SDS011;56688;50.234;19.292;2022-08-21T16:05:59;5.90;;;3.80;;
69126;SDS011;56688;50.234;19.292;2022-08-21T16:08:26;8.90;;;4.40;;
69126;SDS011;56688;50.234;19.292;2022-08-21T16:10:53;7.00;;;4.00;;
69126;SDS011;56688;50.234;19.292;2022-08-21T16:13:25;7.30;;;4.10;;
69126;SDS011;56688;50.234;19.292;2022-08-21T16:15:54;5.80;;;4.40;;
69126;SDS011;56688;50.234;19.292;2022-08-21T16:18:21;7.80;;;4.50;;
69126;SDS011;56688;50.234;19.292;2022-08-21T16:20:49;6.60;;;4.50;;
69126;SDS011;56688;50.234;19.292;2022-08-21T16:23:16;7.00;;;4.60;;
69126;SDS011;56688;50.234;19.292;2022-08-21T16:25:43;8.20;;;4.00;;
69126;SDS011;56688;50.234;19.292;2022-08-21T16:28:12;5.20;;;3.50;;
69126;SDS011;56688;50.234;19.292;2022-08-21T16:30:43;6.10;;;4.00;;